createdAt,value
2022-11-13T00:00:01.745Z,9.89
2022-11-13T00:01:22.249Z,9.92
2022-11-13T00:02:34.732Z,9.92
2022-11-13T00:03:48.435Z,9.94
2022-11-13T00:04:55.579Z,9.94
2022-11-13T00:06:04.700Z,9.95
2022-11-13T00:07:08.872Z,9.93
2022-11-13T00:08:19.327Z,9.89
2022-11-13T00:09:23.400Z,9.88
2022-11-13T00:10:27.872Z,9.79
2022-11-13T00:11:38.012Z,9.77
2022-11-13T00:12:41.743Z,9.73
2022-11-13T00:13:46.802Z,9.75
2022-11-13T00:14:50.292Z,9.77
2022-11-13T00:16:19.988Z,9.77
2022-11-13T00:17:28.598Z,9.81
2022-11-13T00:18:37.265Z,9.84
2022-11-13T00:19:42.552Z,9.88
2022-11-13T00:20:51.849Z,9.87
2022-11-13T00:21:57.460Z,9.90
2022-11-13T00:23:13.264Z,9.92
2022-11-13T00:24:39.335Z,9.97
2022-11-13T00:25:50.143Z,9.95
2022-11-13T00:26:53.992Z,9.99
2022-11-13T00:27:57.446Z,10.01
2022-11-13T00:29:06.416Z,10.02
2022-11-13T00:30:16.356Z,10.01
2022-11-13T00:31:22.908Z,10.04
2022-11-13T00:32:27.320Z,10.04
2022-11-13T00:34:01.976Z,10.06
2022-11-13T00:34:55.189Z,10.06
2022-11-13T00:36:15.973Z,10.05
2022-11-13T00:37:20.841Z,10.01
2022-11-13T00:38:24.862Z,10.02
2022-11-13T00:39:28.890Z,10.00
2022-11-13T00:40:32.734Z,10.00
2022-11-13T00:41:36.518Z,10.02
2022-11-13T00:42:40.812Z,10.03
2022-11-13T00:43:44.647Z,10.05
2022-11-13T00:44:48.237Z,10.01
2022-11-13T00:45:53.719Z,10.02
2022-11-13T00:46:59.938Z,10.05
2022-11-13T00:48:03.829Z,10.04
2022-11-13T00:49:07.510Z,10.04
2022-11-13T00:50:14.740Z,10.04
2022-11-13T00:51:19.817Z,9.97
2022-11-13T00:52:23.416Z,9.94
2022-11-13T00:53:27.421Z,9.92
2022-11-13T00:54:35.903Z,9.92
2022-11-13T00:55:44.985Z,9.86
2022-11-13T00:56:51.452Z,9.84
2022-11-13T00:57:55.352Z,9.83
2022-11-13T00:58:59.727Z,9.85
2022-11-13T01:00:04.835Z,9.85
2022-11-13T01:01:16.540Z,9.86
2022-11-13T01:02:20.469Z,9.84
2022-11-13T01:03:24.172Z,9.85
2022-11-13T01:04:32.303Z,9.86
2022-11-13T01:05:54.688Z,9.84
2022-11-13T01:06:59.051Z,9.78
2022-11-13T01:08:05.999Z,9.76
2022-11-13T01:09:10.316Z,9.78
2022-11-13T01:10:14.495Z,9.74
2022-11-13T01:11:23.420Z,9.70
2022-11-13T01:12:27.421Z,9.65
2022-11-13T01:13:31.654Z,9.68
2022-11-13T01:14:36.004Z,9.73
2022-11-13T01:15:47.535Z,9.74
2022-11-13T01:16:54.884Z,9.75
2022-11-13T01:18:01.315Z,9.76
2022-11-13T01:19:05.022Z,9.78
2022-11-13T01:20:11.777Z,9.75
2022-11-13T01:21:22.257Z,9.75
2022-11-13T01:22:25.976Z,9.77
2022-11-13T01:23:29.663Z,9.76
2022-11-13T01:24:33.435Z,9.76
2022-11-13T01:25:37.643Z,9.77
2022-11-13T01:26:41.224Z,9.78
2022-11-13T01:27:45.259Z,9.81
2022-11-13T01:28:51.207Z,9.82
2022-11-13T01:29:54.838Z,9.78
2022-11-13T01:30:58.398Z,9.78
2022-11-13T01:32:02.435Z,9.79
2022-11-13T01:33:11.924Z,9.76
2022-11-13T01:34:19.756Z,9.75
2022-11-13T01:35:24.519Z,9.75
2022-11-13T01:36:32.304Z,9.71
2022-11-13T01:37:41.124Z,9.72
2022-11-13T01:38:46.002Z,9.68
2022-11-13T01:39:50.191Z,9.72
2022-11-13T01:40:54.910Z,9.70
2022-11-13T01:41:59.469Z,9.67
2022-11-13T01:43:25.062Z,9.67
2022-11-13T01:44:51.366Z,9.67
2022-11-13T01:46:05.998Z,9.66
2022-11-13T01:47:11.546Z,9.68
2022-11-13T01:48:16.274Z,9.71
2022-11-13T01:49:38.062Z,9.72
2022-11-13T01:50:41.632Z,9.71
2022-11-13T01:52:12.547Z,9.70
2022-11-13T01:53:21.323Z,9.69
2022-11-13T01:56:31.505Z,9.68
2022-11-13T01:57:47.680Z,9.66
2022-11-13T01:59:36.228Z,9.67
2022-11-13T02:00:41.742Z,9.65
2022-11-13T02:01:45.355Z,9.64
2022-11-13T02:02:49.932Z,9.66
2022-11-13T02:04:03.603Z,9.67
2022-11-13T02:05:11.359Z,9.63
2022-11-13T02:06:20.043Z,9.63
2022-11-13T02:07:28.676Z,9.66
2022-11-13T02:08:36.854Z,9.67
2022-11-13T02:10:11.476Z,9.71
2022-11-13T02:11:29.096Z,9.72
2022-11-13T02:12:49.412Z,9.74
2022-11-13T02:14:53.152Z,9.76
2022-11-13T02:15:41.779Z,9.74
2022-11-13T02:17:02.657Z,9.77
2022-11-13T02:18:15.906Z,9.75
2022-11-13T02:19:53.158Z,9.78
2022-11-13T02:21:46.936Z,9.74
2022-11-13T02:23:19.114Z,9.75
2022-11-13T02:24:45.025Z,9.75
2022-11-13T02:25:58.575Z,9.77
2022-11-13T02:27:22.082Z,9.77
2022-11-13T02:28:36.750Z,9.78
2022-11-13T02:29:40.735Z,9.79
2022-11-13T02:30:46.511Z,9.80
2022-11-13T02:31:52.295Z,9.80
2022-11-13T02:32:59.901Z,9.80
2022-11-13T02:34:06.183Z,9.78
2022-11-13T02:35:15.298Z,9.76
2022-11-13T02:36:27.681Z,9.81
2022-11-13T02:37:42.957Z,9.78
2022-11-13T02:38:54.492Z,9.79
2022-11-13T02:40:02.350Z,9.81
2022-11-13T02:41:09.182Z,9.80
2022-11-13T02:42:23.301Z,9.83
2022-11-13T02:43:29.626Z,9.85
2022-11-13T02:44:34.197Z,9.81
2022-11-13T02:45:41.712Z,9.83
2022-11-13T02:46:45.283Z,9.85
2022-11-13T02:47:52.708Z,9.88
2022-11-13T02:48:57.091Z,9.90
2022-11-13T02:50:00.672Z,9.91
2022-11-13T02:51:05.153Z,9.91
2022-11-13T02:52:16.223Z,9.90
2022-11-13T02:53:19.823Z,9.91
2022-11-13T02:54:23.422Z,9.91
2022-11-13T02:55:27.232Z,9.92
2022-11-13T02:56:30.790Z,9.92
2022-11-13T02:57:34.418Z,9.95
2022-11-13T02:58:37.966Z,9.93
2022-11-13T02:59:42.526Z,9.92
2022-11-13T03:02:21.239Z,9.91
2022-11-13T03:03:56.684Z,9.77
2022-11-13T03:06:18.471Z,9.74
2022-11-13T03:07:22.842Z,9.73
2022-11-13T03:08:28.647Z,9.68
2022-11-13T03:09:33.203Z,9.70
2022-11-13T03:10:38.181Z,9.70
2022-11-13T03:11:48.006Z,9.68
2022-11-13T03:12:51.695Z,9.68
2022-11-13T03:13:55.303Z,9.70
2022-11-13T03:14:59.911Z,9.73
2022-11-13T03:16:15.055Z,9.73
2022-11-13T03:17:20.479Z,9.71
2022-11-13T03:18:26.599Z,9.74
2022-11-13T03:19:32.214Z,9.71
2022-11-13T03:20:42.106Z,9.73
2022-11-13T03:21:46.321Z,9.75
2022-11-13T03:22:50.427Z,9.75
2022-11-13T03:23:55.162Z,9.75
2022-11-13T03:24:59.255Z,9.76
2022-11-13T03:26:13.767Z,9.75
2022-11-13T03:27:17.290Z,9.77
2022-11-13T03:28:20.902Z,9.78
2022-11-13T03:29:27.668Z,9.81
2022-11-13T03:30:33.862Z,9.80
2022-11-13T03:31:38.000Z,9.82
2022-11-13T03:32:41.966Z,9.85
2022-11-13T03:33:48.977Z,9.80
2022-11-13T03:34:53.554Z,9.84
2022-11-13T03:35:57.596Z,9.85
2022-11-13T03:37:07.283Z,9.81
2022-11-13T03:38:12.006Z,9.85
2022-11-13T03:39:23.019Z,9.82
2022-11-13T03:40:36.849Z,9.88
2022-11-13T03:41:44.707Z,9.91
2022-11-13T03:42:50.420Z,9.93
2022-11-13T03:43:54.911Z,9.92
2022-11-13T03:45:03.250Z,9.93
2022-11-13T03:46:06.943Z,9.91
2022-11-13T03:47:24.731Z,9.89
2022-11-13T03:48:30.518Z,9.84
2022-11-13T03:49:35.626Z,9.82
2022-11-13T03:50:44.280Z,9.82
2022-11-13T03:51:49.096Z,9.81
2022-11-13T03:52:53.684Z,9.81
2022-11-13T03:54:00.548Z,9.83
2022-11-13T03:55:06.082Z,9.83
2022-11-13T03:56:11.756Z,9.79
2022-11-13T03:57:17.297Z,9.80
2022-11-13T03:58:21.319Z,9.83
2022-11-13T03:59:28.064Z,9.82
2022-11-13T04:00:32.896Z,9.78
2022-11-13T04:01:36.688Z,9.77
2022-11-13T04:02:43.033Z,9.74
2022-11-13T04:03:48.640Z,9.71
2022-11-13T04:04:52.885Z,9.71
2022-11-13T04:06:00.430Z,9.69
2022-11-13T04:07:07.481Z,9.70
2022-11-13T04:08:14.366Z,9.68
2022-11-13T04:09:18.235Z,9.70
2022-11-13T04:10:22.307Z,9.71
2022-11-13T04:11:35.385Z,9.72
2022-11-13T04:12:42.100Z,9.71
2022-11-13T04:13:47.829Z,9.70
2022-11-13T04:14:51.419Z,9.67
2022-11-13T04:15:57.752Z,9.65
2022-11-13T04:17:02.145Z,9.64
2022-11-13T04:18:10.052Z,9.64
2022-11-13T04:19:13.680Z,9.59
2022-11-13T04:20:18.283Z,9.58
2022-11-13T04:21:23.386Z,9.52
2022-11-13T04:22:28.497Z,9.55
2022-11-13T04:23:33.964Z,9.54
2022-11-13T04:24:38.871Z,9.49
2022-11-13T04:25:43.181Z,9.51
2022-11-13T04:26:49.223Z,9.49
2022-11-13T04:27:58.060Z,9.51
2022-11-13T04:29:05.115Z,9.51
2022-11-13T04:30:12.175Z,9.46
2022-11-13T04:31:19.585Z,9.48
2022-11-13T04:32:26.738Z,9.44
2022-11-13T04:33:30.579Z,9.46
2022-11-13T04:34:35.046Z,9.45
2022-11-13T04:35:43.642Z,9.43
2022-11-13T04:36:49.236Z,9.44
2022-11-13T04:38:00.403Z,9.44
2022-11-13T04:39:05.675Z,9.40
2022-11-13T04:40:10.602Z,9.40
2022-11-13T04:41:32.867Z,9.39
2022-11-13T04:42:51.829Z,9.42
2022-11-13T04:43:55.467Z,9.34
2022-11-13T04:44:58.921Z,9.30
2022-11-13T04:46:02.417Z,9.32
2022-11-13T04:47:06.064Z,9.29
2022-11-13T04:48:09.859Z,9.31
2022-11-13T04:49:13.585Z,9.30
2022-11-13T04:50:19.679Z,9.30
2022-11-13T04:51:23.652Z,9.32
2022-11-13T04:52:28.806Z,9.31
2022-11-13T04:53:36.534Z,9.27
2022-11-13T04:54:41.535Z,9.27
2022-11-13T04:55:49.059Z,9.24
2022-11-13T04:57:14.565Z,9.24
2022-11-13T04:58:21.023Z,9.25
2022-11-13T04:59:27.715Z,9.23
2022-11-13T05:00:33.321Z,9.26
2022-11-13T05:01:37.508Z,9.27
2022-11-13T05:02:41.137Z,9.29
2022-11-13T05:03:45.320Z,9.29
2022-11-13T05:04:49.160Z,9.32
2022-11-13T05:05:53.792Z,9.34
2022-11-13T05:06:59.919Z,9.33
2022-11-13T05:08:05.019Z,9.32
2022-11-13T05:09:12.333Z,9.34
2022-11-13T05:10:23.408Z,9.32
2022-11-13T05:11:39.241Z,9.32
2022-11-13T05:12:48.050Z,9.36
2022-11-13T05:14:03.094Z,9.34
2022-11-13T05:15:09.614Z,9.37
2022-11-13T05:16:15.973Z,9.40
2022-11-13T05:17:22.160Z,9.36
2022-11-13T05:18:27.432Z,9.33
2022-11-13T05:19:34.729Z,9.31
2022-11-13T05:20:40.792Z,9.30
2022-11-13T05:21:44.871Z,9.31
2022-11-13T05:22:48.595Z,9.27
2022-11-13T05:23:55.040Z,9.28
2022-11-13T05:25:04.936Z,9.28
2022-11-13T05:26:16.672Z,9.20
2022-11-13T05:27:20.673Z,9.22
2022-11-13T05:28:28.691Z,9.19
2022-11-13T05:29:40.934Z,9.21
2022-11-13T05:31:32.525Z,9.19
2022-11-13T05:32:24.945Z,9.20
2022-11-13T05:33:32.684Z,9.16
2022-11-13T05:34:36.725Z,9.18
2022-11-13T05:35:51.214Z,9.14
2022-11-13T05:36:56.372Z,9.19
2022-11-13T05:38:05.121Z,9.19
2022-11-13T05:39:12.143Z,9.21
2022-11-13T05:40:19.202Z,9.24
2022-11-13T05:41:24.717Z,9.25
2022-11-13T05:42:32.139Z,9.26
2022-11-13T05:43:38.646Z,9.25
2022-11-13T05:44:47.345Z,9.26
2022-11-13T05:46:21.919Z,9.27
2022-11-13T05:47:31.857Z,9.31
2022-11-13T05:48:43.272Z,9.25
2022-11-13T05:49:55.275Z,9.26
2022-11-13T05:51:25.354Z,9.19
2022-11-13T05:52:31.341Z,9.19
2022-11-13T05:53:38.396Z,9.13
2022-11-13T05:54:46.187Z,9.07
2022-11-13T05:56:12.152Z,9.01
2022-11-13T05:57:19.602Z,9.01
2022-11-13T05:58:31.140Z,9.00
2022-11-13T06:00:00.201Z,9.01
2022-11-13T06:01:24.169Z,8.90
2022-11-13T06:02:33.603Z,8.93
2022-11-13T06:03:48.726Z,8.94
2022-11-13T06:05:00.941Z,8.96
2022-11-13T06:06:18.729Z,8.97
2022-11-13T06:07:26.779Z,8.98
2022-11-13T06:08:33.838Z,8.98
2022-11-13T06:09:38.868Z,9.00
2022-11-13T06:10:46.281Z,8.98
2022-11-13T06:11:54.155Z,9.01
2022-11-13T06:13:02.639Z,9.03
2022-11-13T06:14:12.509Z,9.03
2022-11-13T06:15:20.205Z,9.05
2022-11-13T06:16:38.943Z,9.03
2022-11-13T06:17:47.267Z,9.03
2022-11-13T06:18:54.787Z,8.99
2022-11-13T06:19:58.731Z,8.98
2022-11-13T06:21:22.242Z,8.98
2022-11-13T06:22:28.919Z,8.97
2022-11-13T06:23:39.471Z,8.94
2022-11-13T06:24:50.016Z,8.91
2022-11-13T06:26:05.306Z,8.89
2022-11-13T06:27:11.953Z,8.91
2022-11-13T06:28:16.064Z,8.92
2022-11-13T06:29:21.263Z,8.90
2022-11-13T06:30:35.452Z,8.92
2022-11-13T06:31:39.663Z,8.95
2022-11-13T06:32:46.331Z,8.94
2022-11-13T06:33:52.257Z,8.97
2022-11-13T06:34:59.984Z,8.98
2022-11-13T06:36:17.234Z,9.00
2022-11-13T06:37:21.672Z,8.99
2022-11-13T06:38:27.250Z,9.01
2022-11-13T06:39:33.653Z,8.98
2022-11-13T06:40:45.706Z,8.98
2022-11-13T06:41:57.732Z,8.98
2022-11-13T06:43:12.991Z,8.99
2022-11-13T06:44:22.420Z,8.98
2022-11-13T06:45:35.597Z,8.95
2022-11-13T06:46:50.524Z,8.93
2022-11-13T06:48:01.467Z,8.95
2022-11-13T06:49:12.729Z,8.99
2022-11-13T06:50:26.186Z,9.01
2022-11-13T06:51:41.822Z,8.98
2022-11-13T06:52:51.941Z,8.99
2022-11-13T06:53:58.716Z,9.02
2022-11-13T06:55:02.595Z,9.02
2022-11-13T06:56:07.693Z,9.04
2022-11-13T06:57:12.155Z,9.07
2022-11-13T06:58:18.373Z,9.07
2022-11-13T06:59:22.405Z,9.09
2022-11-13T07:00:36.256Z,9.10
2022-11-13T07:01:44.515Z,9.08
2022-11-13T07:02:52.295Z,9.11
2022-11-13T07:03:58.170Z,9.09
2022-11-13T07:05:03.078Z,9.11
2022-11-13T07:06:18.406Z,9.10
2022-11-13T07:07:26.676Z,9.14
2022-11-13T07:08:39.118Z,9.14
2022-11-13T07:11:22.554Z,9.17
2022-11-13T07:12:33.556Z,9.18
2022-11-13T07:13:43.411Z,9.16
2022-11-13T07:14:56.018Z,9.11
2022-11-13T07:16:19.104Z,9.04
2022-11-13T07:17:33.101Z,9.04
2022-11-13T07:18:40.988Z,9.03
2022-11-13T07:19:51.754Z,8.99
2022-11-13T07:21:02.914Z,8.88
2022-11-13T07:22:09.995Z,8.84
2022-11-13T07:23:15.187Z,8.87
2022-11-13T07:24:20.255Z,8.91
2022-11-13T07:25:25.445Z,8.91
2022-11-13T07:26:32.020Z,8.96
2022-11-13T07:27:38.412Z,8.99
2022-11-13T07:28:44.851Z,9.00
2022-11-13T07:29:50.384Z,9.02
2022-11-13T07:31:04.064Z,9.05
2022-11-13T07:32:08.162Z,9.07
2022-11-13T07:33:14.322Z,9.10
2022-11-13T07:34:22.028Z,9.09
2022-11-13T07:35:26.888Z,9.08
2022-11-13T07:36:33.337Z,9.09
2022-11-13T07:37:40.414Z,9.12
2022-11-13T07:38:48.089Z,9.14
2022-11-13T07:39:52.306Z,9.16
2022-11-13T07:41:00.101Z,9.10
2022-11-13T07:42:06.437Z,9.16
2022-11-13T07:43:13.896Z,9.08
2022-11-13T07:44:39.933Z,9.03
2022-11-13T07:45:45.171Z,9.00
2022-11-13T07:46:50.025Z,9.03
2022-11-13T07:48:04.031Z,8.96
2022-11-13T07:49:11.768Z,8.91
2022-11-13T07:50:15.912Z,8.90
2022-11-13T07:51:20.748Z,8.92
2022-11-13T07:52:27.942Z,8.93
2022-11-13T07:53:33.765Z,8.90
2022-11-13T07:54:37.386Z,8.90
2022-11-13T07:55:45.406Z,8.93
2022-11-13T07:56:59.381Z,8.92
2022-11-13T07:58:06.046Z,8.92
2022-11-13T07:59:13.387Z,8.91
2022-11-13T08:00:20.511Z,8.90
2022-11-13T08:01:24.850Z,8.91
2022-11-13T08:02:35.139Z,8.90
2022-11-13T08:03:49.233Z,8.93
2022-11-13T08:04:53.503Z,8.92
2022-11-13T08:06:13.015Z,8.90
2022-11-13T08:07:16.860Z,8.91
2022-11-13T08:08:20.924Z,8.93
2022-11-13T08:09:24.541Z,8.95
2022-11-13T08:10:29.815Z,8.96
2022-11-13T08:11:33.656Z,9.00
2022-11-13T08:12:37.453Z,8.99
2022-11-13T08:13:41.626Z,8.94
2022-11-13T08:14:45.229Z,8.96
2022-11-13T08:15:49.137Z,8.95
2022-11-13T08:16:52.700Z,8.97
2022-11-13T08:18:00.045Z,8.96
2022-11-13T08:19:08.158Z,8.97
2022-11-13T08:20:13.580Z,8.97
2022-11-13T08:21:18.994Z,8.98
2022-11-13T08:22:23.645Z,9.02
2022-11-13T08:23:27.995Z,8.98
2022-11-13T08:24:39.297Z,9.00
2022-11-13T08:25:43.031Z,9.03
2022-11-13T08:26:48.354Z,9.04
2022-11-13T08:27:54.769Z,9.06
2022-11-13T08:28:58.968Z,9.06
2022-11-13T08:30:06.585Z,9.05
2022-11-13T08:31:16.905Z,9.07
2022-11-13T08:32:34.354Z,9.07
2022-11-13T08:33:41.759Z,9.07
2022-11-13T08:34:53.114Z,9.09
2022-11-13T08:36:15.578Z,9.07
2022-11-13T08:37:20.975Z,9.03
2022-11-13T08:38:32.152Z,9.03
2022-11-13T08:39:42.082Z,9.04
2022-11-13T08:40:50.991Z,9.02
2022-11-13T08:42:29.116Z,9.01
2022-11-13T08:43:43.236Z,9.00
2022-11-13T08:44:50.437Z,8.98
2022-11-13T08:45:56.559Z,9.01
2022-11-13T08:47:11.607Z,9.01
2022-11-13T08:48:20.912Z,8.99
2022-11-13T08:49:30.779Z,9.02
2022-11-13T08:50:40.207Z,9.00
2022-11-13T08:51:49.473Z,9.02
2022-11-13T08:52:57.277Z,8.96
2022-11-13T08:54:08.263Z,9.00
2022-11-13T08:55:19.281Z,8.93
2022-11-13T08:56:24.456Z,8.88
2022-11-13T08:57:32.477Z,8.76
2022-11-13T08:58:40.471Z,8.80
2022-11-13T08:59:48.568Z,8.82
2022-11-13T09:00:55.361Z,8.81
2022-11-13T09:02:03.657Z,8.81
2022-11-13T09:03:18.013Z,8.82
2022-11-13T09:04:27.709Z,8.82
2022-11-13T09:05:50.860Z,8.83
2022-11-13T09:06:57.588Z,8.86
2022-11-13T09:08:06.535Z,8.92
2022-11-13T09:09:18.227Z,8.86
2022-11-13T09:10:26.732Z,8.90
2022-11-13T09:11:34.119Z,8.84
2022-11-13T09:12:43.135Z,8.74
2022-11-13T09:13:53.220Z,8.68
2022-11-13T09:15:05.721Z,8.73
2022-11-13T09:16:16.317Z,8.75
2022-11-13T09:17:26.233Z,8.74
2022-11-13T09:19:59.489Z,8.63
2022-11-13T09:21:11.656Z,8.57
2022-11-13T09:22:18.109Z,8.62
2022-11-13T09:23:26.307Z,8.63
2022-11-13T09:24:32.111Z,8.67
2022-11-13T09:25:38.471Z,8.69
2022-11-13T09:26:47.713Z,8.72
2022-11-13T09:28:01.656Z,8.73
2022-11-13T09:29:06.583Z,8.62
2022-11-13T09:30:13.042Z,8.64
2022-11-13T09:31:16.992Z,8.60
2022-11-13T09:32:24.632Z,8.64
2022-11-13T09:33:28.405Z,8.55
2022-11-13T09:34:37.073Z,8.51
2022-11-13T09:35:42.167Z,8.56
2022-11-13T09:36:50.291Z,8.59
2022-11-13T09:37:55.319Z,8.62
2022-11-13T09:39:03.357Z,8.65
2022-11-13T09:40:26.102Z,8.61
2022-11-13T09:41:45.001Z,8.65
2022-11-13T09:42:50.953Z,8.70
2022-11-13T09:44:04.023Z,8.72
2022-11-13T09:45:16.782Z,8.76
2022-11-13T09:46:38.096Z,8.81
2022-11-13T09:47:48.926Z,8.82
2022-11-13T09:49:20.903Z,8.82
2022-11-13T09:50:34.557Z,8.79
2022-11-13T09:51:55.010Z,8.78
2022-11-13T09:53:23.474Z,8.85
2022-11-13T09:54:37.935Z,8.84
2022-11-13T09:56:20.297Z,8.88
2022-11-13T09:57:49.825Z,8.87
2022-11-13T09:59:22.063Z,8.89
2022-11-13T10:00:35.683Z,8.83
2022-11-13T10:02:28.430Z,8.82
2022-11-13T10:04:05.192Z,8.81
2022-11-13T10:05:47.237Z,8.82
2022-11-13T10:07:38.410Z,8.87
2022-11-13T10:09:24.655Z,8.81
2022-11-13T10:11:02.736Z,8.87
2022-11-13T10:12:14.448Z,8.93
2022-11-13T10:13:31.666Z,8.94
2022-11-13T10:14:46.539Z,8.94
2022-11-13T10:16:17.750Z,8.81
2022-11-13T10:18:32.639Z,8.90
2022-11-13T10:20:01.487Z,8.86
2022-11-13T10:21:45.513Z,8.82
2022-11-13T10:23:18.676Z,8.89
2022-11-13T10:24:47.078Z,8.93
2022-11-13T10:25:52.894Z,8.93
2022-11-13T10:27:00.345Z,8.94
2022-11-13T10:29:55.445Z,8.99
2022-11-13T10:31:03.560Z,9.04
2022-11-13T10:32:23.841Z,9.09
2022-11-13T10:33:33.169Z,9.15
2022-11-13T10:34:44.505Z,9.20
2022-11-13T10:36:26.325Z,9.24
2022-11-13T10:38:04.873Z,9.29
2022-11-13T10:39:11.754Z,9.36
2022-11-13T10:40:31.732Z,9.39
2022-11-13T10:41:52.524Z,9.43
2022-11-13T10:43:15.096Z,9.50
2022-11-13T10:44:31.144Z,9.50
2022-11-13T10:45:34.717Z,9.55
2022-11-13T10:46:39.249Z,9.57
2022-11-13T10:48:07.458Z,9.59
2022-11-13T10:49:22.464Z,9.52
2022-11-13T10:50:33.298Z,9.51
2022-11-13T10:51:37.293Z,9.54
2022-11-13T10:52:51.822Z,9.50
2022-11-13T10:54:03.091Z,9.51
2022-11-13T10:55:24.443Z,9.54
2022-11-13T10:56:40.386Z,9.60
2022-11-13T10:58:01.599Z,9.63
2022-11-13T10:59:22.673Z,9.67
2022-11-13T11:00:39.479Z,9.72
2022-11-13T11:01:54.147Z,9.77
2022-11-13T11:03:02.477Z,9.77
2022-11-13T11:04:36.222Z,9.76
2022-11-13T11:06:03.678Z,9.78
2022-11-13T11:07:20.577Z,9.79
2022-11-13T11:08:38.931Z,9.83
2022-11-13T11:09:52.354Z,9.84
2022-11-13T11:11:37.104Z,9.91
2022-11-13T11:12:52.777Z,9.92
2022-11-13T11:14:21.944Z,9.91
2022-11-13T11:16:07.978Z,9.83
2022-11-13T11:17:20.249Z,9.88
2022-11-13T11:18:50.672Z,9.88
2022-11-13T11:20:41.515Z,9.88
2022-11-13T11:22:24.380Z,9.86
2022-11-13T11:23:55.743Z,9.87
2022-11-13T11:25:40.795Z,9.88
2022-11-13T11:27:35.439Z,9.90
2022-11-13T11:29:36.824Z,9.90
2022-11-13T11:31:05.513Z,9.97
2022-11-13T11:32:52.783Z,9.98
2022-11-13T11:34:18.615Z,10.02
2022-11-13T11:36:23.765Z,9.97
2022-11-13T11:37:56.341Z,9.98
2022-11-13T11:39:47.817Z,9.98
2022-11-13T11:41:15.988Z,10.03
2022-11-13T11:43:15.391Z,10.06
2022-11-13T11:45:04.316Z,10.09
2022-11-13T11:46:18.834Z,10.09
2022-11-13T11:47:27.633Z,10.08
2022-11-13T11:48:37.797Z,10.09
2022-11-13T11:49:47.612Z,10.06
2022-11-13T11:51:37.609Z,10.10
2022-11-13T11:53:17.160Z,10.11
2022-11-13T11:55:13.031Z,10.08
2022-11-13T11:56:40.194Z,10.08
2022-11-13T11:58:00.879Z,10.08
2022-11-13T12:00:07.890Z,10.13
2022-11-13T12:01:33.690Z,10.15
2022-11-13T12:03:12.743Z,10.10
2022-11-13T12:04:42.371Z,10.07
2022-11-13T12:06:10.832Z,10.04
2022-11-13T12:07:56.680Z,10.00
2022-11-13T12:09:13.743Z,9.95
2022-11-13T12:10:43.394Z,9.99
2022-11-13T12:12:42.171Z,10.07
2022-11-13T12:13:58.615Z,10.12
2022-11-13T12:15:39.584Z,10.08
2022-11-13T12:17:02.685Z,10.10
2022-11-13T12:18:37.348Z,10.17
2022-11-13T12:20:05.147Z,10.11
2022-11-13T12:21:52.124Z,10.11
2022-11-13T12:23:17.811Z,10.09
2022-11-13T12:25:05.056Z,10.07
2022-11-13T12:26:45.888Z,10.11
2022-11-13T12:28:15.164Z,10.14
2022-11-13T12:29:41.022Z,10.14
2022-11-13T12:31:20.323Z,10.14
2022-11-13T12:33:00.503Z,10.13
2022-11-13T12:34:41.039Z,10.11
2022-11-13T12:35:56.975Z,10.11
2022-11-13T12:37:47.082Z,10.06
2022-11-13T12:39:09.323Z,10.05
2022-11-13T12:42:15.793Z,10.03
2022-11-13T12:43:54.962Z,10.02
2022-11-13T12:45:46.396Z,10.05
2022-11-13T12:47:09.273Z,10.00
2022-11-13T12:48:39.140Z,9.92
2022-11-13T12:50:06.061Z,9.82
2022-11-13T12:51:18.768Z,9.90
2022-11-13T12:52:26.759Z,9.87
2022-11-13T12:53:54.009Z,9.91
2022-11-13T12:55:30.491Z,9.92
2022-11-13T12:56:42.257Z,9.91
2022-11-13T12:58:01.200Z,9.90
2022-11-13T12:59:33.852Z,9.92
2022-11-13T13:00:52.903Z,9.93
2022-11-13T13:02:09.463Z,9.99
2022-11-13T13:03:21.310Z,10.00
2022-11-13T13:04:46.651Z,10.01
2022-11-13T13:06:31.068Z,10.03
2022-11-13T13:08:33.117Z,9.98
2022-11-13T13:10:24.135Z,9.96
2022-11-13T13:12:51.502Z,9.95
2022-11-13T13:15:02.299Z,9.94
2022-11-13T13:16:10.760Z,9.95
2022-11-13T13:17:24.065Z,9.95
2022-11-13T13:18:35.258Z,9.97
2022-11-13T13:19:42.033Z,9.97
2022-11-13T13:21:19.730Z,9.93
2022-11-13T13:22:35.783Z,9.97
2022-11-13T13:23:47.524Z,9.98
2022-11-13T13:25:36.429Z,9.97
2022-11-13T13:26:47.921Z,9.95
2022-11-13T13:28:06.274Z,10.01
2022-11-13T13:29:25.218Z,10.01
2022-11-13T13:30:35.192Z,9.97
2022-11-13T13:32:20.645Z,10.02
2022-11-13T13:33:57.850Z,9.99
2022-11-13T13:35:06.088Z,9.98
2022-11-13T13:36:44.972Z,9.99
2022-11-13T13:37:58.591Z,9.88
2022-11-13T13:39:38.891Z,9.95
2022-11-13T13:41:02.618Z,9.98
2022-11-13T13:42:48.351Z,9.98
2022-11-13T13:44:20.906Z,9.91
2022-11-13T13:46:16.129Z,9.87
2022-11-13T13:47:36.203Z,9.80
2022-11-13T13:48:49.248Z,9.81
2022-11-13T13:50:00.975Z,9.79
2022-11-13T13:51:40.403Z,9.78
2022-11-13T13:52:54.241Z,9.72
2022-11-13T13:54:08.924Z,9.73
2022-11-13T13:55:43.761Z,9.65
2022-11-13T13:56:48.702Z,9.62
2022-11-13T13:57:54.632Z,9.65
2022-11-13T13:59:00.088Z,9.64
2022-11-13T14:00:18.891Z,9.64
2022-11-13T14:01:36.471Z,9.55
2022-11-13T14:02:56.568Z,9.56
2022-11-13T14:04:20.594Z,9.60
2022-11-13T14:05:32.642Z,9.55
2022-11-13T14:06:36.793Z,9.56
2022-11-13T14:07:47.431Z,9.56
2022-11-13T14:08:51.163Z,9.59
2022-11-13T14:10:13.164Z,9.60
2022-11-13T14:11:21.184Z,9.63
2022-11-13T14:12:25.247Z,9.58
2022-11-13T14:13:30.014Z,9.55
2022-11-13T14:14:34.166Z,9.54
2022-11-13T14:15:37.781Z,9.49
2022-11-13T14:16:54.426Z,9.44
2022-11-13T14:18:18.063Z,9.45
2022-11-13T14:19:23.855Z,9.44
2022-11-13T14:20:29.539Z,9.48
2022-11-13T14:21:35.518Z,9.51
2022-11-13T14:22:44.359Z,9.53
2022-11-13T14:23:57.628Z,9.52
2022-11-13T14:25:02.241Z,9.54
2022-11-13T14:26:12.145Z,9.54
2022-11-13T14:27:28.661Z,9.46
2022-11-13T14:28:45.706Z,9.40
2022-11-13T14:30:00.349Z,9.41
2022-11-13T14:31:10.282Z,9.42
2022-11-13T14:32:22.488Z,9.38
2022-11-13T14:33:43.263Z,9.40
2022-11-13T14:34:59.841Z,9.42
2022-11-13T14:36:18.784Z,9.43
2022-11-13T14:37:39.907Z,9.45
2022-11-13T14:38:52.115Z,9.38
2022-11-13T14:40:07.638Z,9.37
2022-11-13T14:41:51.505Z,9.33
2022-11-13T14:43:09.075Z,9.27
2022-11-13T14:44:17.431Z,9.31
2022-11-13T14:45:27.437Z,9.31
2022-11-13T14:46:44.752Z,9.35
2022-11-13T14:48:28.816Z,9.39
2022-11-13T14:49:38.048Z,9.40
2022-11-13T14:50:55.051Z,9.44
2022-11-13T14:52:01.328Z,9.36
2022-11-13T14:53:09.919Z,9.37
2022-11-13T14:55:08.125Z,9.38
2022-11-13T14:56:10.736Z,9.33
2022-11-13T14:57:16.248Z,9.27
2022-11-13T14:58:36.676Z,9.24
2022-11-13T14:59:44.595Z,9.22
2022-11-13T15:00:49.661Z,9.23
2022-11-13T15:01:59.751Z,9.26
2022-11-13T15:03:09.834Z,9.24
2022-11-13T15:04:13.508Z,9.23
2022-11-13T15:05:17.396Z,9.24
2022-11-13T15:06:29.197Z,9.25
2022-11-13T15:07:38.985Z,9.24
2022-11-13T15:08:51.160Z,9.19
2022-11-13T15:09:57.083Z,9.18
2022-11-13T15:11:02.137Z,9.17
2022-11-13T15:12:11.001Z,9.14
2022-11-13T15:13:18.257Z,9.12
2022-11-13T15:14:23.213Z,9.13
2022-11-13T15:15:31.063Z,9.04
2022-11-13T15:16:36.863Z,9.08
2022-11-13T15:17:43.523Z,9.01
2022-11-13T15:18:58.858Z,9.06
2022-11-13T15:20:09.307Z,9.08
2022-11-13T15:21:13.707Z,9.05
2022-11-13T15:22:27.208Z,9.05
2022-11-13T15:23:35.731Z,9.06
2022-11-13T15:24:40.022Z,9.05
2022-11-13T15:25:46.355Z,9.01
2022-11-13T15:26:54.297Z,9.00
2022-11-13T15:27:58.304Z,8.99
2022-11-13T15:29:02.710Z,9.00
2022-11-13T15:30:07.121Z,8.99
2022-11-13T15:31:20.390Z,8.99
2022-11-13T15:32:24.926Z,8.97
2022-11-13T15:33:29.506Z,8.94
2022-11-13T15:34:33.451Z,8.91
2022-11-13T15:35:37.070Z,8.91
2022-11-13T15:36:46.059Z,8.80
2022-11-13T15:37:50.012Z,8.77
2022-11-13T15:38:54.587Z,8.81
2022-11-13T15:39:59.631Z,8.85
2022-11-13T15:41:12.285Z,8.90
2022-11-13T15:42:21.948Z,8.91
2022-11-13T15:43:26.056Z,8.93
2022-11-13T15:44:32.480Z,8.93
2022-11-13T15:45:39.892Z,8.94
2022-11-13T15:46:47.127Z,8.97
2022-11-13T15:47:50.696Z,8.87
2022-11-13T15:48:56.283Z,8.89
2022-11-13T15:50:16.672Z,8.87
2022-11-13T15:51:37.779Z,8.95
2022-11-13T15:52:47.035Z,8.97
2022-11-13T15:54:31.410Z,8.91
2022-11-13T15:55:37.534Z,8.87
2022-11-13T15:56:42.541Z,8.88
2022-11-13T15:57:46.556Z,8.91
2022-11-13T15:58:51.945Z,8.93
2022-11-13T15:59:58.901Z,8.91
2022-11-13T16:01:02.946Z,8.95
2022-11-13T16:02:06.744Z,8.95
2022-11-13T16:03:12.514Z,8.92
2022-11-13T16:04:16.991Z,8.95
2022-11-13T16:05:23.973Z,8.95
2022-11-13T16:06:28.764Z,8.96
2022-11-13T16:07:34.698Z,8.97
2022-11-13T16:08:40.302Z,8.99
2022-11-13T16:09:45.865Z,8.99
2022-11-13T16:10:49.786Z,9.01
2022-11-13T16:11:55.403Z,8.99
2022-11-13T16:13:00.542Z,9.05
2022-11-13T16:14:05.300Z,9.04
2022-11-13T16:15:12.903Z,9.08
2022-11-13T16:16:29.058Z,9.09
2022-11-13T16:17:41.430Z,9.02
2022-11-13T16:18:45.798Z,9.02
2022-11-13T16:19:55.181Z,9.04
2022-11-13T16:20:59.182Z,9.04
2022-11-13T16:22:02.967Z,9.03
2022-11-13T16:23:09.005Z,9.04